Time;durP1;ratioP1;P1;durP2;ratioP2;P2;SDS_P1;SDS_P2;PMS_P1;PMS_P2;Temp;Humidity;BMP_temperature;BMP_pressure;BME280_temperature;BME280_humidity;BME280_pressure;Samples;Min_cycle;Max_cycle;Signal;HPM_P1;HPM_P2
2021/10/10 00:00:46;;;;;;;53.90;40.80;;;;;;;3.64;76.40;102288.65;228838;1199;137783;-72
2021/10/10 00:05:49;;;;;;;53.90;39.30;;;;;;;3.50;76.11;102286.27;229239;1196;138785;-69
2021/10/10 00:10:51;;;;;;;50.10;39.20;;;;;;;3.59;75.73;102282.08;230067;1195;138896;-69
2021/10/10 00:15:53;;;;;;;53.00;38.90;;;;;;;3.65;75.22;102274.87;229964;1196;138586;-72
2021/10/10 00:20:55;;;;;;;54.60;40.60;;;;;;;3.65;75.30;102276.63;229180;1196;138227;-72
2021/10/10 00:25:56;;;;;;;51.10;40.40;;;;;;;3.60;75.08;102272.98;228997;1196;138436;-72
2021/10/10 00:30:58;;;;;;;56.50;42.10;;;;;;;3.50;75.44;102271.29;229570;1196;138409;-71
2021/10/10 00:36:00;;;;;;;57.40;43.50;;;;;;;3.45;75.62;102273.08;229753;1197;138991;-73
2021/10/10 00:41:01;;;;;;;53.60;39.20;;;;;;;3.31;75.99;102270.48;229105;1195;138044;-72
2021/10/10 00:46:03;;;;;;;50.70;38.60;;;;;;;3.15;76.50;102271.45;229007;1196;138041;-72
2021/10/10 00:51:05;;;;;;;45.60;35.10;;;;;;;3.13;76.81;102272.40;229394;1196;137641;-72
2021/10/10 00:56:07;;;;;;;42.30;34.20;;;;;;;3.06;77.19;102272.15;229612;1196;137798;-71
2021/10/10 01:01:09;;;;;;;49.60;37.90;;;;;;;3.00;77.23;102271.69;229160;1195;137930;-72
2021/10/10 01:06:10;;;;;;;48.80;37.30;;;;;;;3.03;77.16;102267.56;228970;1196;138341;-72
2021/10/10 01:11:13;;;;;;;47.80;36.90;;;;;;;3.10;76.91;102265.02;229318;1200;138697;-73
2021/10/10 01:16:15;;;;;;;44.90;36.40;;;;;;;3.14;76.50;102259.27;229778;1196;138680;-72
2021/10/10 01:21:17;;;;;;;49.40;37.30;;;;;;;3.17;76.44;102259.14;229725;1196;138372;-72
2021/10/10 01:26:19;;;;;;;49.40;36.80;;;;;;;3.11;76.17;102252.97;228982;1196;139061;-74
2021/10/10 01:31:21;;;;;;;48.70;36.80;;;;;;;3.10;76.65;102252.64;229653;1196;138338;-73
2021/10/10 01:36:23;;;;;;;44.30;35.60;;;;;;;2.98;76.94;102247.92;229582;1196;138049;-73
2021/10/10 01:41:24;;;;;;;38.50;32.10;;;;;;;2.88;76.23;102247.23;229772;1195;139065;-72
2021/10/10 01:46:26;;;;;;;39.50;31.40;;;;;;;2.88;76.22;102244.98;229692;1196;138361;-72
2021/10/10 01:51:28;;;;;;;44.50;33.00;;;;;;;2.87;76.66;102239.63;229694;1196;138197;-71
2021/10/10 01:56:30;;;;;;;41.50;32.90;;;;;;;2.91;76.42;102231.98;229771;1196;137855;-72
2021/10/10 02:01:32;;;;;;;50.60;35.80;;;;;;;2.81;76.28;102232.34;229769;1197;139359;-73
2021/10/10 02:06:34;;;;;;;53.40;35.60;;;;;;;2.72;76.45;102233.58;229776;1196;138326;-73
2021/10/10 02:11:35;;;;;;;49.50;34.30;;;;;;;2.68;76.63;102232.45;229579;1195;138726;-71
2021/10/10 02:16:37;;;;;;;42.70;32.20;;;;;;;2.64;76.98;102228.25;229557;1197;137990;-72
2021/10/10 02:21:39;;;;;;;46.20;33.50;;;;;;;2.54;77.44;102231.61;229764;1196;138524;-71
2021/10/10 02:26:40;;;;;;;40.20;31.70;;;;;;;2.49;77.63;102232.12;229625;1196;138044;-73
2021/10/10 02:31:42;;;;;;;46.30;34.70;;;;;;;2.38;77.22;102234.45;229244;1196;137958;-71
2021/10/10 02:36:45;;;;;;;42.20;35.10;;;;;;;2.22;76.43;102228.76;229661;1196;138149;-72
2021/10/10 02:41:47;;;;;;;44.70;35.70;;;;;;;2.26;77.31;102226.90;229450;1196;138156;-71
2021/10/10 02:46:49;;;;;;;43.00;32.20;;;;;;;2.21;78.38;102222.02;229238;1196;151043;-72
2021/10/10 02:51:50;;;;;;;43.80;31.40;;;;;;;2.25;78.18;102225.02;229499;1196;138219;-71
2021/10/10 02:56:52;;;;;;;47.00;34.40;;;;;;;2.32;77.84;102222.66;229601;1196;138168;-71
2021/10/10 03:01:54;;;;;;;42.50;30.50;;;;;;;2.37;77.41;102221.09;229114;1196;138844;-72
2021/10/10 03:06:55;;;;;;;45.00;30.70;;;;;;;2.35;76.86;102218.06;229539;1196;138962;-71
2021/10/10 03:11:57;;;;;;;37.40;28.30;;;;;;;2.36;76.61;102214.16;229492;1196;139257;-72
2021/10/10 03:16:59;;;;;;;36.40;28.20;;;;;;;2.41;77.03;102207.57;229518;1190;138386;-71
2021/10/10 03:22:01;;;;;;;36.60;29.20;;;;;;;2.30;77.01;102208.31;229113;1196;204004;-72
2021/10/10 03:27:02;;;;;;;36.10;28.70;;;;;;;2.14;77.57;102209.02;229499;1196;138650;-70
2021/10/10 03:32:04;;;;;;;36.50;27.20;;;;;;;2.21;77.65;102204.98;229452;1196;137813;-72
2021/10/10 03:37:06;;;;;;;38.80;28.20;;;;;;;2.32;77.33;102200.25;229220;1197;138282;-73
2021/10/10 03:42:08;;;;;;;32.30;27.90;;;;;;;2.30;76.73;102198.06;229404;1195;138064;-73
2021/10/10 03:47:13;;;;;;;34.90;27.60;;;;;;;2.12;76.75;102188.25;229716;1199;137769;-73
2021/10/10 03:52:15;;;;;;;37.50;29.80;;;;;;;2.05;77.06;102186.92;229761;1195;138064;-73
2021/10/10 03:57:21;;;;;;;40.40;29.40;;;;;;;2.01;76.96;102183.77;229458;1196;138711;-72
2021/10/10 04:02:24;;;;;;;40.60;28.90;;;;;;;2.07;76.76;102174.35;229769;1196;138604;-73
2021/10/10 04:07:26;;;;;;;34.80;27.50;;;;;;;2.18;76.32;102173.61;229443;1196;138222;-72
2021/10/10 04:12:27;;;;;;;34.90;28.50;;;;;;;2.09;76.13;102173.76;229618;1196;137975;-72
2021/10/10 04:17:29;;;;;;;35.20;28.40;;;;;;;2.03;76.58;102173.80;229574;1196;138188;-72
2021/10/10 04:22:30;;;;;;;38.30;29.10;;;;;;;2.14;76.96;102177.54;229142;1180;138018;-72
2021/10/10 04:27:34;;;;;;;33.70;27.30;;;;;;;2.23;77.29;102172.73;229543;1196;138393;-72
2021/10/10 04:32:36;;;;;;;38.90;27.80;;;;;;;2.24;76.88;102170.62;229424;1196;137841;-72
2021/10/10 04:37:38;;;;;;;35.50;26.20;;;;;;;2.25;77.29;102168.13;229479;1196;137846;-72
2021/10/10 04:42:40;;;;;;;36.70;28.20;;;;;;;2.23;77.37;102167.14;229439;1196;138367;-70
2021/10/10 04:47:41;;;;;;;36.80;28.50;;;;;;;2.12;77.10;102171.55;229131;1196;138199;-72
2021/10/10 04:52:43;;;;;;;35.30;28.10;;;;;;;2.20;77.47;102168.81;229352;1196;138514;-72
2021/10/10 04:57:45;;;;;;;39.50;29.70;;;;;;;2.31;77.71;102168.77;229495;1196;138432;-72
2021/10/10 05:02:46;;;;;;;39.10;29.10;;;;;;;2.39;77.17;102165.34;229336;1196;138302;-72
2021/10/10 05:07:48;;;;;;;39.30;31.00;;;;;;;2.37;76.80;102168.73;229426;1196;138277;-69
2021/10/10 05:12:50;;;;;;;38.10;28.60;;;;;;;2.16;76.99;102168.62;229452;1196;138402;-72
2021/10/10 05:17:51;;;;;;;32.20;26.40;;;;;;;2.12;78.28;102166.70;229482;1196;138490;-73
2021/10/10 05:22:53;;;;;;;38.10;26.40;;;;;;;2.18;78.38;102169.23;229351;1196;137916;-72
2021/10/10 05:27:55;;;;;;;32.20;25.50;;;;;;;2.09;78.31;102167.85;229468;1196;138219;-68
2021/10/10 05:32:57;;;;;;;35.90;26.40;;;;;;;2.12;78.44;102163.90;229328;1196;137797;-72
2021/10/10 05:37:58;;;;;;;36.00;27.30;;;;;;;2.27;78.86;102163.03;229305;1188;138403;-71
2021/10/10 05:43:00;;;;;;;31.30;23.60;;;;;;;2.43;78.77;102163.64;229512;1196;138186;-72
2021/10/10 05:48:02;;;;;;;34.30;23.80;;;;;;;2.62;78.50;102161.55;229514;1197;138728;-73
2021/10/10 05:53:07;;;;;;;32.30;23.90;;;;;;;2.80;78.13;102160.13;229618;1196;138612;-71
2021/10/10 05:58:16;;;;;;;31.10;24.90;;;;;;;2.92;77.57;102156.36;229597;1196;138482;-71
2021/10/10 06:03:18;;;;;;;30.50;23.80;;;;;;;3.01;77.49;102163.15;229410;1196;138450;-72
2021/10/10 06:08:20;;;;;;;28.70;22.10;;;;;;;3.07;77.45;102159.24;229535;1196;138345;-72
2021/10/10 06:13:22;;;;;;;25.40;20.90;;;;;;;3.15;77.44;102156.84;229490;1196;138181;-72
2021/10/10 06:18:25;;;;;;;24.70;20.20;;;;;;;3.23;76.99;102158.78;229356;1196;138570;-71
2021/10/10 06:23:27;;;;;;;27.40;21.00;;;;;;;3.31;76.66;102158.45;229504;1196;137978;-71
2021/10/10 06:28:28;;;;;;;23.50;18.90;;;;;;;3.45;76.09;102156.13;229517;1196;138715;-72
2021/10/10 06:33:30;;;;;;;27.10;19.40;;;;;;;3.59;75.69;102156.77;229461;1196;139406;-71
2021/10/10 06:38:32;;;;;;;23.60;18.90;;;;;;;3.77;74.98;102153.58;229779;1196;138276;-72
2021/10/10 06:43:33;;;;;;;24.50;19.10;;;;;;;3.87;74.81;102156.98;229608;1196;138063;-70
2021/10/10 06:48:35;;;;;;;25.20;19.80;;;;;;;3.94;74.83;102153.70;229422;1196;138019;-72
2021/10/10 06:53:37;;;;;;;25.40;19.50;;;;;;;3.98;74.80;102155.45;229412;1196;137806;-70
2021/10/10 06:58:38;;;;;;;23.90;19.50;;;;;;;4.03;74.80;102158.20;229368;1196;138025;-72
2021/10/10 07:03:41;;;;;;;24.00;19.70;;;;;;;4.11;74.95;102159.75;229446;1196;138486;-72
2021/10/10 07:08:43;;;;;;;23.00;17.70;;;;;;;4.18;74.85;102155.25;229400;1196;137820;-73
2021/10/10 07:13:44;;;;;;;22.00;15.70;;;;;;;4.32;74.30;102153.42;230104;1196;138367;-75
2021/10/10 07:18:47;;;;;;;18.10;15.40;;;;;;;4.61;73.10;102156.58;229395;1196;139457;-71
2021/10/10 07:28:54;;;;;;;19.30;15.60;;;;;;;5.06;70.61;102153.94;229676;1196;138417;-71
2021/10/10 07:33:55;;;;;;;18.70;14.80;;;;;;;5.21;69.05;102155.52;229941;1196;138769;-75
2021/10/10 07:38:57;;;;;;;19.60;15.10;;;;;;;5.31;69.24;102156.39;229262;1195;137999;-74
2021/10/10 07:43:59;;;;;;;19.40;15.50;;;;;;;5.43;68.87;102155.29;229363;1196;137748;-72
2021/10/10 07:49:01;;;;;;;19.10;13.80;;;;;;;5.42;69.33;102155.33;229412;1196;138300;-71
2021/10/10 07:54:03;;;;;;;16.80;14.20;;;;;;;5.39;70.47;102153.23;229240;1196;138086;-70
2021/10/10 07:59:05;;;;;;;16.50;12.80;;;;;;;5.41;70.96;102155.88;229334;1195;138057;-72
2021/10/10 08:04:07;;;;;;;16.20;12.90;;;;;;;5.59;69.82;102154.80;229338;1196;138162;-75
2021/10/10 08:09:09;;;;;;;16.70;12.10;;;;;;;5.69;69.45;102155.41;229186;1197;138801;-69
2021/10/10 08:14:11;;;;;;;15.10;12.30;;;;;;;5.92;68.76;102148.96;229187;1196;138909;-70
2021/10/10 08:19:13;;;;;;;16.30;12.20;;;;;;;6.17;67.53;102142.39;229341;1194;137995;-73
2021/10/10 08:24:17;;;;;;;15.10;11.30;;;;;;;6.38;66.19;102140.05;229400;1199;138066;-73
2021/10/10 08:29:18;;;;;;;14.60;12.00;;;;;;;6.48;66.22;102141.95;229574;1196;138600;-74
2021/10/10 08:34:20;;;;;;;14.10;11.10;;;;;;;6.52;65.83;102137.91;229078;1198;138269;-71
2021/10/10 08:39:24;;;;;;;16.00;11.00;;;;;;;6.50;65.47;102138.70;229368;1196;137804;-72
2021/10/10 08:44:33;;;;;;;12.90;10.80;;;;;;;6.74;64.80;102132.84;229378;1196;138332;-72
2021/10/10 08:49:37;;;;;;;11.50;9.80;;;;;;;6.96;63.71;102134.91;229223;1196;138171;-70
2021/10/10 08:54:40;;;;;;;11.70;9.50;;;;;;;7.12;62.23;102125.77;229285;1196;137771;-69
2021/10/10 08:59:46;;;;;;;11.60;8.40;;;;;;;7.16;62.08;102123.96;229284;1196;140105;-71
2021/10/10 09:04:48;;;;;;;11.10;8.90;;;;;;;7.34;61.55;102114.69;229345;1196;137818;-72
2021/10/10 09:09:50;;;;;;;13.10;9.10;;;;;;;7.42;62.36;102113.68;229661;1196;138080;-72
2021/10/10 09:14:52;;;;;;;9.60;8.40;;;;;;;7.62;62.15;102109.46;229308;1195;138682;-73
2021/10/10 09:19:58;;;;;;;10.60;8.80;;;;;;;7.81;59.68;102108.39;229606;1196;138640;-73
2021/10/10 09:25:11;;;;;;;13.00;9.40;;;;;;;8.04;57.90;102103.30;229857;1195;137855;-73
2021/10/10 09:30:14;;;;;;;10.40;8.00;;;;;;;8.13;58.84;102097.98;229954;1195;138173;-75
2021/10/10 09:35:24;;;;;;;7.30;6.50;;;;;;;8.33;57.18;102096.20;229833;1196;138053;-74
2021/10/10 09:40:31;;;;;;;6.50;5.70;;;;;;;8.60;55.13;102095.04;229746;1195;137690;-77
2021/10/10 09:45:41;;;;;;;7.90;5.50;;;;;;;8.72;53.64;102087.60;229597;1196;137873;-74
2021/10/10 09:50:48;;;;;;;9.10;5.80;;;;;;;8.97;50.83;102086.95;229441;1197;138307;-72
2021/10/10 09:55:56;;;;;;;6.40;4.70;;;;;;;9.16;50.31;102088.23;229519;1196;137754;-73
2021/10/10 10:01:13;;;;;;;5.10;4.60;;;;;;;9.45;47.81;102082.88;229595;1197;138155;-72
2021/10/10 10:06:15;;;;;;;5.80;4.60;;;;;;;9.59;47.75;102080.22;228996;1196;137704;-72
2021/10/10 10:11:17;;;;;;;6.10;4.10;;;;;;;9.71;47.11;102070.23;229527;1196;138162;-71
2021/10/10 10:16:19;;;;;;;5.50;4.00;;;;;;;9.84;46.95;102067.92;229524;1194;137871;-74
2021/10/10 10:21:21;;;;;;;5.90;4.10;;;;;;;9.94;48.61;102056.96;229557;1197;138047;-72
2021/10/10 10:26:23;;;;;;;4.40;3.80;;;;;;;10.16;45.74;102059.69;229753;1196;139240;-74
2021/10/10 10:31:25;;;;;;;4.00;3.70;;;;;;;10.37;44.56;102055.00;229628;1196;138341;-73
2021/10/10 10:36:58;;;;;;;6.10;4.00;;;;;;;10.60;43.91;102057.02;229482;1197;137847;-73
2021/10/10 10:42:01;;;;;;;4.00;3.60;;;;;;;10.93;43.46;102053.73;229570;1195;138828;-70
2021/10/10 10:47:08;;;;;;;4.30;3.30;;;;;;;11.17;44.07;102042.92;229520;1196;137790;-71
2021/10/10 10:52:37;;;;;;;5.00;3.30;;;;;;;11.55;44.01;102039.09;229585;1196;138271;-72
2021/10/10 10:57:43;;;;;;;6.00;3.30;;;;;;;11.86;42.38;102035.45;229726;1196;138189;-72
2021/10/10 11:02:54;;;;;;;5.20;3.40;;;;;;;12.01;40.24;102034.99;229618;1196;137860;-73
2021/10/10 11:07:56;;;;;;;7.80;3.80;;;;;;;12.27;39.97;102026.88;229959;1196;138113;-71
2021/10/10 11:13:06;;;;;;;5.30;4.40;;;;;;;12.75;39.24;102025.95;229701;1181;138218;-72
2021/10/10 11:18:08;;;;;;;4.50;4.10;;;;;;;13.88;39.12;102019.98;230408;1196;138194;-71
2021/10/10 11:23:10;;;;;;;7.90;5.00;;;;;;;14.85;35.97;102006.58;229903;1196;138198;-74
2021/10/10 11:28:12;;;;;;;6.60;4.40;;;;;;;15.39;35.89;102001.51;229591;1196;138633;-73
2021/10/10 11:33:15;;;;;;;5.30;3.80;;;;;;;17.53;30.23;101989.27;229557;1197;141680;-73
2021/10/10 11:38:17;;;;;;;7.00;4.30;;;;;;;20.64;25.22;101976.38;229800;1196;137760;-74
2021/10/10 11:43:23;;;;;;;3.80;3.50;;;;;;;21.43;24.47;101962.02;229748;1196;138467;-73
2021/10/10 11:48:35;;;;;;;5.50;3.70;;;;;;;17.63;28.16;101965.39;229735;1196;138296;-72
2021/10/10 11:53:46;;;;;;;4.80;3.90;;;;;;;15.79;30.99;101961.90;229702;1195;137870;-74
2021/10/10 11:58:47;;;;;;;4.40;3.50;;;;;;;14.54;33.58;101960.09;229666;1197;137918;-72
2021/10/10 12:03:49;;;;;;;5.20;3.90;;;;;;;13.70;34.44;101959.05;229582;1197;138455;-72
2021/10/10 12:09:04;;;;;;;4.00;3.30;;;;;;;13.49;34.25;101956.16;229745;1197;138241;-72
2021/10/10 12:14:09;;;;;;;5.30;3.10;;;;;;;14.20;33.25;101948.08;229795;1196;137976;-73
2021/10/10 12:19:10;;;;;;;4.50;3.10;;;;;;;13.37;34.58;101937.69;229655;1193;138932;-74
2021/10/10 12:24:14;;;;;;;3.80;3.20;;;;;;;13.02;36.92;101937.21;229585;1194;138325;-72
2021/10/10 12:29:25;;;;;;;3.90;3.00;;;;;;;13.21;35.69;101929.15;229826;1199;138386;-74
2021/10/10 12:34:30;;;;;;;3.60;2.70;;;;;;;13.17;36.31;101927.95;229757;1196;139225;-73
2021/10/10 12:39:42;;;;;;;5.10;3.90;;;;;;;13.44;36.71;101924.54;230101;1197;137964;-74
2021/10/10 12:45:10;;;;;;;6.00;3.30;;;;;;;13.44;37.03;101921.73;233107;1195;140127;-72
2021/10/10 12:50:12;;;;;;;4.10;2.80;;;;;;;13.17;37.45;101908.86;230109;1195;138181;-74
2021/10/10 12:55:29;;;;;;;4.90;2.70;;;;;;;12.98;37.62;101909.16;229971;1196;138236;-74
2021/10/10 13:00:31;;;;;;;3.10;2.50;;;;;;;13.16;36.02;101904.50;230453;1196;137866;-76
2021/10/10 13:05:32;;;;;;;4.10;3.70;;;;;;;13.19;37.07;101897.34;229734;1197;138101;-74
2021/10/10 13:10:34;;;;;;;4.00;2.90;;;;;;;12.89;39.34;101892.97;230524;1195;138214;-73
2021/10/10 13:15:36;;;;;;;4.20;2.80;;;;;;;12.80;39.31;101885.98;229666;1195;137835;-72
2021/10/10 13:20:37;;;;;;;4.60;2.30;;;;;;;12.59;38.75;101884.23;229595;1196;137783;-70
2021/10/10 13:25:39;;;;;;;7.70;5.20;;;;;;;12.50;39.68;101878.29;229864;1195;139059;-71
2021/10/10 13:30:43;;;;;;;3.30;2.90;;;;;;;12.32;38.96;101877.34;230413;1197;137947;-73
2021/10/10 13:35:45;;;;;;;2.70;2.30;;;;;;;12.25;39.20;101867.48;230165;1195;138296;-77
2021/10/10 13:40:47;;;;;;;5.10;2.50;;;;;;;12.24;39.94;101864.55;229254;1200;138131;-74
2021/10/10 13:46:03;;;;;;;3.00;2.10;;;;;;;12.14;39.83;101861.13;229923;1196;138384;-73
2021/10/10 13:51:06;;;;;;;3.90;2.80;;;;;;;12.03;39.92;101865.08;229774;1195;137734;-74
2021/10/10 13:56:08;;;;;;;3.70;2.80;;;;;;;12.06;39.72;101861.65;229595;1197;138259;-73
2021/10/10 14:01:09;;;;;;;2.70;2.10;;;;;;;12.22;39.25;101857.98;229756;1200;138092;-73
2021/10/10 14:06:11;;;;;;;2.20;2.00;;;;;;;12.26;38.56;101849.15;229628;1197;138457;-73
2021/10/10 14:11:13;;;;;;;3.00;2.10;;;;;;;12.26;38.29;101847.96;229700;1197;138293;-74
2021/10/10 14:16:14;;;;;;;5.10;2.60;;;;;;;12.20;38.85;101842.45;227918;1196;333123;-73
2021/10/10 14:21:16;;;;;;;2.90;2.40;;;;;;;12.21;39.07;101834.03;228806;1197;138312;-72
2021/10/10 14:26:18;;;;;;;3.00;2.50;;;;;;;11.86;40.43;101839.23;229010;1196;137875;-74
2021/10/10 14:31:20;;;;;;;2.90;2.60;;;;;;;11.60;42.37;101838.88;229042;1190;139156;-73
2021/10/10 14:36:21;;;;;;;2.70;2.10;;;;;;;11.44;43.01;101839.59;229270;1197;138394;-72
2021/10/10 14:41:28;;;;;;;2.70;2.50;;;;;;;11.36;43.77;101830.89;229133;1196;138153;-73
2021/10/10 14:46:32;;;;;;;5.30;2.70;;;;;;;11.23;44.36;101822.76;229119;1197;138383;-75
2021/10/10 14:51:33;;;;;;;3.30;2.90;;;;;;;11.20;44.49;101822.14;229735;1197;138116;-73
2021/10/10 14:56:35;;;;;;;4.20;3.10;;;;;;;11.19;44.71;101825.39;229372;1197;138105;-72
2021/10/10 15:01:37;;;;;;;3.70;3.10;;;;;;;11.09;45.25;101822.16;229345;1197;138140;-73
2021/10/10 15:06:39;;;;;;;3.70;2.80;;;;;;;10.97;45.75;101815.88;229365;1196;137760;-75
2021/10/10 15:11:41;;;;;;;2.90;2.60;;;;;;;10.89;46.66;101812.96;229539;1196;138165;-74
2021/10/10 15:16:42;;;;;;;5.10;3.10;;;;;;;10.81;47.05;101805.26;229403;1196;138243;-75
2021/10/10 15:21:44;;;;;;;4.80;2.90;;;;;;;10.80;46.77;101805.86;229153;1197;138281;-74
2021/10/10 15:26:46;;;;;;;3.60;2.90;;;;;;;10.73;45.95;101797.99;229548;1196;137959;-75
2021/10/10 15:31:48;;;;;;;3.10;2.80;;;;;;;10.66;47.17;101793.20;230128;1195;138205;-74
2021/10/10 15:36:49;;;;;;;2.80;2.60;;;;;;;10.56;48.03;101792.25;230234;1196;138227;-74
2021/10/10 15:41:51;;;;;;;3.00;2.70;;;;;;;10.49;48.71;101791.72;229269;1196;138346;-73
2021/10/10 15:46:53;;;;;;;5.50;3.70;;;;;;;10.38;48.95;101790.97;229811;1196;137723;-74
2021/10/10 15:51:55;;;;;;;5.80;4.30;;;;;;;10.28;49.01;101792.81;229656;1196;138449;-74
2021/10/10 15:56:59;;;;;;;4.30;3.50;;;;;;;10.15;50.14;101791.82;229400;1196;138219;-74
2021/10/10 16:02:01;;;;;;;4.60;3.70;;;;;;;10.02;50.83;101790.69;229368;1197;137808;-75
2021/10/10 16:07:04;;;;;;;4.60;3.40;;;;;;;9.88;51.89;101793.86;229338;1196;138027;-74
2021/10/10 16:12:07;;;;;;;8.40;4.90;;;;;;;9.75;52.23;101784.98;230093;1195;137814;-73
2021/10/10 16:17:08;;;;;;;5.40;3.80;;;;;;;9.61;52.87;101788.23;229481;1197;137847;-74
2021/10/10 16:22:10;;;;;;;4.90;4.20;;;;;;;9.56;52.97;101787.59;229854;1196;137856;-74
2021/10/10 16:27:12;;;;;;;7.90;4.20;;;;;;;9.46;53.15;101783.88;229958;1195;138346;-74
2021/10/10 16:32:13;;;;;;;5.20;4.00;;;;;;;9.39;53.91;101785.66;230548;1195;138014;-74
2021/10/10 16:37:25;;;;;;;4.10;3.70;;;;;;;9.32;54.25;101778.94;230061;1196;137759;-73
2021/10/10 16:42:27;;;;;;;5.90;5.10;;;;;;;9.20;54.68;101783.70;229407;1196;137999;-75
2021/10/10 16:47:29;;;;;;;8.00;6.00;;;;;;;9.13;54.79;101782.23;229908;1196;137695;-74
2021/10/10 16:52:30;;;;;;;8.40;5.50;;;;;;;8.96;55.87;101779.73;230651;1196;137983;-77
2021/10/10 16:57:32;;;;;;;6.00;5.30;;;;;;;8.82;56.99;101778.83;230388;1196;137978;-77
2021/10/10 17:02:35;;;;;;;7.90;5.30;;;;;;;8.70;57.90;101780.02;230396;1196;138925;-78
2021/10/10 17:07:37;;;;;;;9.10;5.60;;;;;;;8.57;59.03;101778.30;230982;1195;137751;-77
2021/10/10 17:12:38;;;;;;;6.90;5.60;;;;;;;8.46;59.63;101780.58;231034;1196;138125;-78
2021/10/10 17:17:40;;;;;;;10.30;5.90;;;;;;;8.38;59.75;101782.55;230873;1195;137858;-76
2021/10/10 17:22:42;;;;;;;10.20;6.20;;;;;;;8.28;60.68;101781.83;230777;1196;137861;-75
2021/10/10 17:27:44;;;;;;;7.60;6.20;;;;;;;8.20;60.54;101774.80;230668;1196;138231;-77
2021/10/10 17:32:47;;;;;;;7.40;6.60;;;;;;;8.15;60.98;101770.41;230415;1195;138224;-78
2021/10/10 17:37:49;;;;;;;7.60;6.20;;;;;;;8.03;61.63;101766.79;230440;1196;138344;-78
2021/10/10 17:42:51;;;;;;;10.30;8.20;;;;;;;8.01;61.67;101767.10;230630;1195;138130;-77
2021/10/10 17:47:52;;;;;;;11.00;9.90;;;;;;;7.98;61.52;101762.38;230999;1195;224825;-77
2021/10/10 17:52:54;;;;;;;10.80;8.60;;;;;;;7.98;61.69;101764.17;230681;1195;138206;-79
2021/10/10 17:58:04;;;;;;;14.30;9.40;;;;;;;7.95;61.96;101765.45;230866;1196;138092;-77
2021/10/10 18:13:40;;;;;;;12.80;11.30;;;;;;;7.75;62.22;101767.67;230251;1196;138421;-77
2021/10/10 18:18:43;;;;;;;13.00;11.70;;;;;;;7.67;62.28;101763.48;230571;1196;137970;-79
2021/10/10 18:23:45;;;;;;;13.00;11.20;;;;;;;7.58;63.03;101756.45;230933;1196;139086;-78
2021/10/10 18:28:46;;;;;;;13.90;12.00;;;;;;;7.56;63.27;101751.52;230519;1196;138232;-76
2021/10/10 18:33:48;;;;;;;15.30;12.60;;;;;;;7.49;63.36;101750.39;230674;1196;138465;-75
2021/10/10 18:38:50;;;;;;;14.60;12.90;;;;;;;7.44;63.82;101749.34;230666;1195;138713;-74
2021/10/10 18:43:52;;;;;;;14.60;12.70;;;;;;;7.35;63.98;101747.94;230857;1195;138589;-76
2021/10/10 18:48:54;;;;;;;18.10;14.30;;;;;;;7.31;64.08;101746.31;230831;1195;137641;-76
2021/10/10 18:53:58;;;;;;;19.60;13.10;;;;;;;7.26;64.17;101740.99;230815;1195;138597;-78
2021/10/10 18:58:59;;;;;;;15.60;13.60;;;;;;;7.28;64.00;101745.14;230640;1195;138330;-76
2021/10/10 19:04:01;;;;;;;18.20;14.30;;;;;;;7.32;63.17;101747.14;230509;1197;139939;-76
2021/10/10 19:09:04;;;;;;;16.00;13.10;;;;;;;7.28;63.37;101749.83;230609;1196;138132;-77
2021/10/10 19:14:06;;;;;;;17.70;15.30;;;;;;;7.20;63.61;101743.54;230460;1196;138714;-75
2021/10/10 19:19:07;;;;;;;20.20;16.90;;;;;;;7.10;63.46;101745.70;230625;1195;138071;-76
2021/10/10 19:24:12;;;;;;;21.30;17.90;;;;;;;6.84;64.06;101745.23;230547;1196;137994;-77
2021/10/10 19:29:14;;;;;;;21.50;17.60;;;;;;;6.75;64.65;101738.45;230764;1195;138170;-75
2021/10/10 19:34:15;;;;;;;20.30;18.10;;;;;;;6.80;64.82;101725.70;231001;1195;139733;-78
2021/10/10 19:39:17;;;;;;;22.90;18.50;;;;;;;6.74;64.80;101727.64;232411;1195;138143;-77
2021/10/10 19:44:19;;;;;;;21.10;17.50;;;;;;;6.47;65.29;101725.11;230974;1195;137814;-76
2021/10/10 19:49:21;;;;;;;23.40;18.10;;;;;;;6.36;65.46;101723.33;230782;1196;138749;-77
2021/10/10 19:54:22;;;;;;;20.20;17.50;;;;;;;6.33;65.49;101713.70;230740;1195;138221;-76
2021/10/10 19:59:25;;;;;;;21.50;17.40;;;;;;;6.34;65.95;101711.23;230896;1195;139939;-76
2021/10/10 20:04:30;;;;;;;21.30;16.10;;;;;;;6.31;66.38;101706.34;230628;1196;138017;-75
2021/10/10 20:09:32;;;;;;;23.20;17.20;;;;;;;6.22;66.07;101705.10;230280;1196;138497;-78
2021/10/10 20:14:34;;;;;;;22.10;17.20;;;;;;;5.91;66.59;101698.73;230565;1196;137912;-76
2021/10/10 20:19:37;;;;;;;21.90;18.20;;;;;;;5.82;67.50;101696.80;230530;1196;138780;-75
2021/10/10 20:24:39;;;;;;;23.70;18.00;;;;;;;5.81;67.23;101690.20;230493;1180;138229;-75
2021/10/10 20:29:42;;;;;;;23.90;16.90;;;;;;;5.65;67.90;101691.15;230679;1196;138194;-76
2021/10/10 20:34:44;;;;;;;18.80;16.10;;;;;;;5.65;68.20;101687.67;230525;1195;139205;-76
2021/10/10 20:39:46;;;;;;;20.30;16.10;;;;;;;5.67;68.31;101687.00;230762;1195;139594;-77
2021/10/10 20:44:48;;;;;;;26.10;18.10;;;;;;;5.52;68.47;101689.44;230878;1194;138148;-76
2021/10/10 20:49:49;;;;;;;24.00;17.90;;;;;;;5.44;68.48;101685.37;230607;1195;137910;-73
2021/10/10 20:54:51;;;;;;;21.30;16.80;;;;;;;5.45;68.90;101681.48;230193;1196;138259;-75
2021/10/10 20:59:53;;;;;;;22.30;17.80;;;;;;;5.35;69.52;101675.56;229830;1196;138147;-75
2021/10/10 21:04:54;;;;;;;22.60;17.60;;;;;;;5.30;69.41;101670.98;230895;1195;138381;-76
2021/10/10 21:09:56;;;;;;;21.30;16.40;;;;;;;5.21;69.66;101664.30;231498;1194;138355;-75
2021/10/10 21:14:58;;;;;;;21.80;17.70;;;;;;;5.19;69.89;101653.27;232399;1195;137832;-78
2021/10/10 21:20:00;;;;;;;26.40;19.30;;;;;;;5.14;69.81;101654.77;231985;1195;139257;-76
2021/10/10 21:25:03;;;;;;;27.20;19.70;;;;;;;4.99;69.69;101648.46;230691;1195;138588;-77
2021/10/10 21:35:33;;;;;;;27.00;19.80;;;;;;;5.17;69.65;101637.45;229643;1196;139560;-77
2021/10/10 21:40:34;;;;;;;26.90;21.30;;;;;;;5.05;69.57;101632.55;230488;1196;138446;-80
2021/10/10 21:45:36;;;;;;;29.60;22.30;;;;;;;4.96;70.53;101633.95;230267;1195;138607;-79
2021/10/10 21:50:38;;;;;;;28.10;23.50;;;;;;;4.92;70.16;101621.40;230171;1195;138652;-75
2021/10/10 21:55:40;;;;;;;32.70;25.10;;;;;;;4.80;70.76;101617.01;229601;1197;138272;-75
2021/10/10 22:00:45;;;;;;;46.40;32.60;;;;;;;4.69;70.70;101612.04;230335;1195;138287;-76
2021/10/10 22:05:47;;;;;;;50.60;34.70;;;;;;;4.43;70.64;101610.35;230401;1195;139106;-75
2021/10/10 22:10:48;;;;;;;48.70;32.90;;;;;;;4.35;71.38;101606.89;230294;1195;138437;-76
2021/10/10 22:15:50;;;;;;;49.50;36.00;;;;;;;4.36;71.37;101599.39;230527;1196;138415;-75
2021/10/10 22:20:54;;;;;;;51.60;36.60;;;;;;;4.17;71.58;101597.24;230570;1196;138705;-78
2021/10/10 22:26:12;;;;;;;47.70;33.40;;;;;;;3.99;72.21;101597.02;230142;1196;137867;-75
2021/10/10 22:31:14;;;;;;;42.60;31.70;;;;;;;4.07;72.42;101588.06;230055;1196;137842;-74
2021/10/10 22:36:16;;;;;;;42.80;32.00;;;;;;;4.15;71.53;101584.80;230502;1194;138076;-75
2021/10/10 22:41:18;;;;;;;39.60;30.00;;;;;;;4.11;71.33;101582.02;230054;1200;137938;-76
2021/10/10 22:46:19;;;;;;;41.20;29.80;;;;;;;4.06;71.48;101578.48;230633;1196;138661;-76
2021/10/10 22:51:21;;;;;;;34.20;26.50;;;;;;;4.08;71.84;101572.97;230359;1196;139173;-75
2021/10/10 22:56:25;;;;;;;39.30;27.40;;;;;;;4.22;71.59;101563.70;230563;1196;138895;-75
2021/10/10 23:01:27;;;;;;;36.00;27.60;;;;;;;4.26;71.42;101554.71;230654;1195;137750;-75
2021/10/10 23:06:29;;;;;;;31.30;24.40;;;;;;;4.34;71.37;101547.30;230591;1187;141865;-75